sensor_id;sensor_type;location;lat;lon;timestamp;P1;durP1;ratioP1;P2;durP2;ratioP2
18754;SDS011;35061;47.664;9.166;2022-09-13T00:01:02;2.70;;;1.52;;
18754;SDS011;35061;47.664;9.166;2022-09-13T00:03:30;2.70;;;1.83;;
18754;SDS011;35061;47.664;9.166;2022-09-13T00:06:05;1.50;;;1.40;;
18754;SDS011;35061;47.664;9.166;2022-09-13T00:08:34;2.03;;;1.70;;
18754;SDS011;35061;47.664;9.166;2022-09-13T00:11:02;3.00;;;2.00;;
18754;SDS011;35061;47.664;9.166;2022-09-13T00:13:30;1.73;;;1.48;;
18754;SDS011;35061;47.664;9.166;2022-09-13T00:15:58;2.08;;;1.80;;
18754;SDS011;35061;47.664;9.166;2022-09-13T00:18:28;2.53;;;1.60;;
18754;SDS011;35061;47.664;9.166;2022-09-13T00:21:07;2.15;;;1.55;;
18754;SDS011;35061;47.664;9.166;2022-09-13T00:23:39;1.83;;;1.67;;
18754;SDS011;35061;47.664;9.166;2022-09-13T00:26:12;2.00;;;1.90;;
18754;SDS011;35061;47.664;9.166;2022-09-13T00:28:43;5.15;;;1.80;;
18754;SDS011;35061;47.664;9.166;2022-09-13T00:31:14;3.70;;;1.50;;
18754;SDS011;35061;47.664;9.166;2022-09-13T00:33:42;2.42;;;1.42;;
18754;SDS011;35061;47.664;9.166;2022-09-13T00:36:10;1.73;;;1.55;;
18754;SDS011;35061;47.664;9.166;2022-09-13T00:38:38;2.67;;;1.67;;
18754;SDS011;35061;47.664;9.166;2022-09-13T00:41:08;2.55;;;1.62;;
18754;SDS011;35061;47.664;9.166;2022-09-13T00:43:42;1.95;;;1.42;;
18754;SDS011;35061;47.664;9.166;2022-09-13T00:49:02;1.90;;;1.80;;
18754;SDS011;35061;47.664;9.166;2022-09-13T00:51:36;2.95;;;1.33;;
18754;SDS011;35061;47.664;9.166;2022-09-13T00:54:06;2.85;;;1.77;;
18754;SDS011;35061;47.664;9.166;2022-09-13T00:56:36;4.15;;;1.95;;
18754;SDS011;35061;47.664;9.166;2022-09-13T00:59:12;3.33;;;2.00;;
18754;SDS011;35061;47.664;9.166;2022-09-13T01:01:45;2.17;;;1.85;;
18754;SDS011;35061;47.664;9.166;2022-09-13T01:04:16;2.17;;;1.98;;
18754;SDS011;35061;47.664;9.166;2022-09-13T01:06:46;3.20;;;1.90;;
18754;SDS011;35061;47.664;9.166;2022-09-13T01:09:15;3.95;;;2.12;;
18754;SDS011;35061;47.664;9.166;2022-09-13T01:14:50;2.67;;;1.90;;
18754;SDS011;35061;47.664;9.166;2022-09-13T01:17:19;3.97;;;2.12;;
18754;SDS011;35061;47.664;9.166;2022-09-13T01:19:47;6.22;;;2.30;;
18754;SDS011;35061;47.664;9.166;2022-09-13T01:28:09;3.67;;;2.00;;
18754;SDS011;35061;47.664;9.166;2022-09-13T01:31:26;1.95;;;1.85;;
18754;SDS011;35061;47.664;9.166;2022-09-13T01:37:11;4.93;;;1.85;;
18754;SDS011;35061;47.664;9.166;2022-09-13T01:40:16;5.25;;;2.10;;
18754;SDS011;35061;47.664;9.166;2022-09-13T01:45:46;2.72;;;2.33;;
18754;SDS011;35061;47.664;9.166;2022-09-13T01:48:24;3.72;;;2.00;;
18754;SDS011;35061;47.664;9.166;2022-09-13T01:51:03;4.25;;;2.35;;
18754;SDS011;35061;47.664;9.166;2022-09-13T01:56:25;2.70;;;2.00;;
18754;SDS011;35061;47.664;9.166;2022-09-13T01:59:46;2.25;;;2.00;;
18754;SDS011;35061;47.664;9.166;2022-09-13T02:04:35;2.92;;;1.98;;
18754;SDS011;35061;47.664;9.166;2022-09-13T02:07:09;3.08;;;2.25;;
18754;SDS011;35061;47.664;9.166;2022-09-13T02:09:45;4.60;;;2.20;;
18754;SDS011;35061;47.664;9.166;2022-09-13T02:12:18;2.85;;;2.17;;
18754;SDS011;35061;47.664;9.166;2022-09-13T02:14:51;4.05;;;2.20;;
18754;SDS011;35061;47.664;9.166;2022-09-13T02:17:27;4.07;;;2.05;;
18754;SDS011;35061;47.664;9.166;2022-09-13T02:20:07;2.20;;;2.00;;
18754;SDS011;35061;47.664;9.166;2022-09-13T02:23:12;2.58;;;2.08;;
18754;SDS011;35061;47.664;9.166;2022-09-13T02:25:43;3.67;;;2.17;;
18754;SDS011;35061;47.664;9.166;2022-09-13T02:28:15;2.12;;;2.03;;
18754;SDS011;35061;47.664;9.166;2022-09-13T02:30:48;4.22;;;2.58;;
18754;SDS011;35061;47.664;9.166;2022-09-13T02:33:22;3.10;;;2.53;;
18754;SDS011;35061;47.664;9.166;2022-09-13T02:36:05;2.15;;;1.95;;
18754;SDS011;35061;47.664;9.166;2022-09-13T02:38:37;2.20;;;2.00;;
18754;SDS011;35061;47.664;9.166;2022-09-13T02:44:07;6.18;;;2.70;;
18754;SDS011;35061;47.664;9.166;2022-09-13T02:56:00;2.90;;;2.50;;
18754;SDS011;35061;47.664;9.166;2022-09-13T03:01:19;2.47;;;2.12;;
18754;SDS011;35061;47.664;9.166;2022-09-13T03:03:48;2.78;;;2.47;;
18754;SDS011;35061;47.664;9.166;2022-09-13T03:06:24;6.47;;;2.47;;
18754;SDS011;35061;47.664;9.166;2022-09-13T03:08:53;3.05;;;1.95;;
18754;SDS011;35061;47.664;9.166;2022-09-13T03:14:48;2.83;;;2.15;;
18754;SDS011;35061;47.664;9.166;2022-09-13T03:28:04;3.45;;;2.53;;
18754;SDS011;35061;47.664;9.166;2022-09-13T03:30:47;2.70;;;2.35;;
18754;SDS011;35061;47.664;9.166;2022-09-13T03:33:28;2.70;;;2.50;;
18754;SDS011;35061;47.664;9.166;2022-09-13T03:38:52;3.20;;;2.22;;
18754;SDS011;35061;47.664;9.166;2022-09-13T03:41:42;2.55;;;2.33;;
18754;SDS011;35061;47.664;9.166;2022-09-13T03:44:18;2.55;;;2.35;;
18754;SDS011;35061;47.664;9.166;2022-09-13T03:46:50;3.15;;;2.25;;
18754;SDS011;35061;47.664;9.166;2022-09-13T03:49:23;2.60;;;2.15;;
18754;SDS011;35061;47.664;9.166;2022-09-13T03:51:53;3.85;;;2.30;;
18754;SDS011;35061;47.664;9.166;2022-09-13T03:54:23;2.75;;;2.00;;
18754;SDS011;35061;47.664;9.166;2022-09-13T03:57:07;2.35;;;2.05;;
18754;SDS011;35061;47.664;9.166;2022-09-13T03:59:36;3.75;;;2.37;;
18754;SDS011;35061;47.664;9.166;2022-09-13T04:02:06;4.53;;;2.53;;
18754;SDS011;35061;47.664;9.166;2022-09-13T04:04:38;5.30;;;3.03;;
18754;SDS011;35061;47.664;9.166;2022-09-13T04:07:08;6.05;;;2.67;;
18754;SDS011;35061;47.664;9.166;2022-09-13T04:09:37;2.67;;;2.47;;
18754;SDS011;35061;47.664;9.166;2022-09-13T04:12:05;2.40;;;2.20;;
18754;SDS011;35061;47.664;9.166;2022-09-13T04:14:34;2.83;;;2.40;;
18754;SDS011;35061;47.664;9.166;2022-09-13T04:17:02;3.12;;;1.90;;
18754;SDS011;35061;47.664;9.166;2022-09-13T04:19:30;3.75;;;2.58;;
18754;SDS011;35061;47.664;9.166;2022-09-13T04:21:58;2.55;;;2.35;;
18754;SDS011;35061;47.664;9.166;2022-09-13T04:24:26;2.85;;;2.60;;
18754;SDS011;35061;47.664;9.166;2022-09-13T04:26:55;2.95;;;2.70;;
18754;SDS011;35061;47.664;9.166;2022-09-13T04:29:24;3.40;;;2.60;;
18754;SDS011;35061;47.664;9.166;2022-09-13T04:31:53;4.12;;;2.92;;
18754;SDS011;35061;47.664;9.166;2022-09-13T04:34:22;2.47;;;2.28;;
18754;SDS011;35061;47.664;9.166;2022-09-13T04:36:50;6.65;;;3.62;;
18754;SDS011;35061;47.664;9.166;2022-09-13T04:39:19;9.73;;;4.25;;
18754;SDS011;35061;47.664;9.166;2022-09-13T04:41:48;6.85;;;3.87;;
18754;SDS011;35061;47.664;9.166;2022-09-13T04:44:18;7.35;;;3.72;;
18754;SDS011;35061;47.664;9.166;2022-09-13T04:46:47;8.40;;;3.72;;
18754;SDS011;35061;47.664;9.166;2022-09-13T04:49:16;5.85;;;3.50;;
18754;SDS011;35061;47.664;9.166;2022-09-13T04:51:45;11.15;;;4.60;;
18754;SDS011;35061;47.664;9.166;2022-09-13T04:54:13;14.05;;;5.87;;
18754;SDS011;35061;47.664;9.166;2022-09-13T04:56:44;12.93;;;4.70;;
18754;SDS011;35061;47.664;9.166;2022-09-13T04:59:13;6.15;;;4.22;;
18754;SDS011;35061;47.664;9.166;2022-09-13T05:01:41;7.72;;;5.47;;
18754;SDS011;35061;47.664;9.166;2022-09-13T05:04:09;5.35;;;3.85;;
18754;SDS011;35061;47.664;9.166;2022-09-13T05:06:37;12.05;;;5.00;;
18754;SDS011;35061;47.664;9.166;2022-09-13T05:09:05;16.17;;;6.18;;
18754;SDS011;35061;47.664;9.166;2022-09-13T05:11:32;22.35;;;7.32;;
18754;SDS011;35061;47.664;9.166;2022-09-13T05:14:00;30.08;;;7.90;;
18754;SDS011;35061;47.664;9.166;2022-09-13T05:16:29;8.23;;;5.47;;
18754;SDS011;35061;47.664;9.166;2022-09-13T05:18:59;16.90;;;6.32;;
18754;SDS011;35061;47.664;9.166;2022-09-13T05:21:28;28.42;;;6.68;;
18754;SDS011;35061;47.664;9.166;2022-09-13T05:23:57;33.55;;;6.87;;
18754;SDS011;35061;47.664;9.166;2022-09-13T05:26:27;26.52;;;6.97;;
18754;SDS011;35061;47.664;9.166;2022-09-13T05:29:00;37.30;;;7.43;;
18754;SDS011;35061;47.664;9.166;2022-09-13T05:31:32;30.17;;;6.80;;
18754;SDS011;35061;47.664;9.166;2022-09-13T05:34:03;19.73;;;5.37;;
18754;SDS011;35061;47.664;9.166;2022-09-13T05:36:33;16.00;;;5.45;;
18754;SDS011;35061;47.664;9.166;2022-09-13T05:39:01;20.88;;;6.25;;
18754;SDS011;35061;47.664;9.166;2022-09-13T05:41:49;9.40;;;4.70;;
18754;SDS011;35061;47.664;9.166;2022-09-13T05:44:17;21.70;;;6.50;;
18754;SDS011;35061;47.664;9.166;2022-09-13T05:46:47;47.15;;;7.80;;
18754;SDS011;35061;47.664;9.166;2022-09-13T05:49:15;26.05;;;5.87;;
18754;SDS011;35061;47.664;9.166;2022-09-13T05:51:43;8.88;;;4.75;;
18754;SDS011;35061;47.664;9.166;2022-09-13T05:54:11;7.18;;;4.32;;
18754;SDS011;35061;47.664;9.166;2022-09-13T05:56:39;7.85;;;5.20;;
18754;SDS011;35061;47.664;9.166;2022-09-13T05:59:10;4.95;;;4.30;;
18754;SDS011;35061;47.664;9.166;2022-09-13T06:01:39;5.20;;;4.30;;
18754;SDS011;35061;47.664;9.166;2022-09-13T06:04:07;6.30;;;4.70;;
18754;SDS011;35061;47.664;9.166;2022-09-13T06:06:35;5.03;;;4.57;;
18754;SDS011;35061;47.664;9.166;2022-09-13T06:09:02;6.43;;;5.30;;
18754;SDS011;35061;47.664;9.166;2022-09-13T06:11:32;5.97;;;4.85;;
18754;SDS011;35061;47.664;9.166;2022-09-13T06:14:00;4.85;;;4.40;;
18754;SDS011;35061;47.664;9.166;2022-09-13T06:16:28;6.97;;;5.57;;
18754;SDS011;35061;47.664;9.166;2022-09-13T06:18:56;7.47;;;5.28;;
18754;SDS011;35061;47.664;9.166;2022-09-13T06:21:25;5.65;;;5.15;;
18754;SDS011;35061;47.664;9.166;2022-09-13T06:23:54;7.07;;;4.87;;
18754;SDS011;35061;47.664;9.166;2022-09-13T06:26:23;5.45;;;4.32;;
18754;SDS011;35061;47.664;9.166;2022-09-13T06:28:53;5.07;;;4.57;;
18754;SDS011;35061;47.664;9.166;2022-09-13T06:31:24;6.03;;;5.20;;
18754;SDS011;35061;47.664;9.166;2022-09-13T06:33:54;5.82;;;4.87;;
18754;SDS011;35061;47.664;9.166;2022-09-13T06:36:26;5.25;;;4.75;;
18754;SDS011;35061;47.664;9.166;2022-09-13T06:38:54;5.50;;;4.65;;
18754;SDS011;35061;47.664;9.166;2022-09-13T06:41:23;6.03;;;4.85;;
18754;SDS011;35061;47.664;9.166;2022-09-13T06:43:57;5.80;;;5.05;;
18754;SDS011;35061;47.664;9.166;2022-09-13T06:46:28;5.20;;;4.70;;
18754;SDS011;35061;47.664;9.166;2022-09-13T06:48:58;7.57;;;5.20;;
18754;SDS011;35061;47.664;9.166;2022-09-13T06:51:27;6.68;;;5.80;;
18754;SDS011;35061;47.664;9.166;2022-09-13T06:53:56;6.15;;;5.30;;
18754;SDS011;35061;47.664;9.166;2022-09-13T06:56:25;11.02;;;5.68;;
18754;SDS011;35061;47.664;9.166;2022-09-13T06:58:59;8.57;;;5.28;;
18754;SDS011;35061;47.664;9.166;2022-09-13T07:01:35;6.35;;;5.70;;
18754;SDS011;35061;47.664;9.166;2022-09-13T07:04:09;6.47;;;5.22;;
18754;SDS011;35061;47.664;9.166;2022-09-13T07:06:39;6.25;;;4.97;;
18754;SDS011;35061;47.664;9.166;2022-09-13T07:09:12;6.18;;;4.97;;
18754;SDS011;35061;47.664;9.166;2022-09-13T07:11:42;5.75;;;4.80;;
18754;SDS011;35061;47.664;9.166;2022-09-13T07:14:12;5.50;;;4.97;;
18754;SDS011;35061;47.664;9.166;2022-09-13T07:16:41;7.07;;;4.95;;
18754;SDS011;35061;47.664;9.166;2022-09-13T07:19:14;3.55;;;3.25;;
18754;SDS011;35061;47.664;9.166;2022-09-13T07:21:43;5.30;;;4.30;;
18754;SDS011;35061;47.664;9.166;2022-09-13T07:24:12;4.12;;;3.72;;
18754;SDS011;35061;47.664;9.166;2022-09-13T07:26:39;6.18;;;4.07;;
18754;SDS011;35061;47.664;9.166;2022-09-13T07:29:08;8.90;;;4.85;;
18754;SDS011;35061;47.664;9.166;2022-09-13T07:31:39;5.43;;;4.00;;
18754;SDS011;35061;47.664;9.166;2022-09-13T07:34:11;5.07;;;4.45;;
18754;SDS011;35061;47.664;9.166;2022-09-13T07:36:41;3.58;;;3.28;;
18754;SDS011;35061;47.664;9.166;2022-09-13T07:39:09;4.28;;;3.10;;
18754;SDS011;35061;47.664;9.166;2022-09-13T07:41:41;6.75;;;3.70;;
18754;SDS011;35061;47.664;9.166;2022-09-13T07:44:10;3.75;;;2.85;;
18754;SDS011;35061;47.664;9.166;2022-09-13T07:46:38;5.22;;;3.87;;
18754;SDS011;35061;47.664;9.166;2022-09-13T07:49:10;4.90;;;4.10;;
18754;SDS011;35061;47.664;9.166;2022-09-13T07:51:40;5.35;;;3.55;;
18754;SDS011;35061;47.664;9.166;2022-09-13T07:54:14;5.50;;;4.05;;
18754;SDS011;35061;47.664;9.166;2022-09-13T07:56:43;4.30;;;3.87;;
18754;SDS011;35061;47.664;9.166;2022-09-13T07:59:12;5.30;;;3.53;;
18754;SDS011;35061;47.664;9.166;2022-09-13T08:01:42;4.57;;;3.45;;
18754;SDS011;35061;47.664;9.166;2022-09-13T08:04:13;3.12;;;2.50;;
18754;SDS011;35061;47.664;9.166;2022-09-13T08:06:46;4.03;;;3.33;;
18754;SDS011;35061;47.664;9.166;2022-09-13T08:09:14;3.35;;;3.05;;
18754;SDS011;35061;47.664;9.166;2022-09-13T08:11:46;3.95;;;3.53;;
18754;SDS011;35061;47.664;9.166;2022-09-13T08:14:16;4.30;;;3.00;;
18754;SDS011;35061;47.664;9.166;2022-09-13T08:16:45;3.58;;;3.28;;
18754;SDS011;35061;47.664;9.166;2022-09-13T08:19:13;4.60;;;2.90;;
18754;SDS011;35061;47.664;9.166;2022-09-13T08:21:43;2.83;;;2.40;;
18754;SDS011;35061;47.664;9.166;2022-09-13T08:24:18;3.35;;;2.62;;
18754;SDS011;35061;47.664;9.166;2022-09-13T08:26:52;4.47;;;2.75;;
18754;SDS011;35061;47.664;9.166;2022-09-13T08:29:21;3.85;;;2.70;;
18754;SDS011;35061;47.664;9.166;2022-09-13T08:31:49;3.53;;;3.22;;
18754;SDS011;35061;47.664;9.166;2022-09-13T08:34:16;2.92;;;2.72;;
18754;SDS011;35061;47.664;9.166;2022-09-13T08:36:44;4.60;;;3.30;;
18754;SDS011;35061;47.664;9.166;2022-09-13T08:39:12;4.55;;;2.80;;
18754;SDS011;35061;47.664;9.166;2022-09-13T08:55:18;4.68;;;2.60;;
18754;SDS011;35061;47.664;9.166;2022-09-13T08:57:56;4.03;;;3.25;;
18754;SDS011;35061;47.664;9.166;2022-09-13T09:05:45;3.83;;;2.90;;
18754;SDS011;35061;47.664;9.166;2022-09-13T09:10:49;3.22;;;2.80;;
18754;SDS011;35061;47.664;9.166;2022-09-13T09:13:29;5.78;;;3.67;;
18754;SDS011;35061;47.664;9.166;2022-09-13T09:18:50;4.03;;;2.78;;
18754;SDS011;35061;47.664;9.166;2022-09-13T09:21:20;5.72;;;3.37;;
18754;SDS011;35061;47.664;9.166;2022-09-13T09:23:49;5.62;;;3.12;;
18754;SDS011;35061;47.664;9.166;2022-09-13T09:26:19;6.45;;;3.20;;
18754;SDS011;35061;47.664;9.166;2022-09-13T09:37:29;4.20;;;3.30;;
18754;SDS011;35061;47.664;9.166;2022-09-13T09:40:00;2.67;;;2.47;;
18754;SDS011;35061;47.664;9.166;2022-09-13T09:42:37;4.95;;;2.72;;
18754;SDS011;35061;47.664;9.166;2022-09-13T09:47:54;3.67;;;2.53;;
18754;SDS011;35061;47.664;9.166;2022-09-13T09:50:26;2.92;;;2.58;;
18754;SDS011;35061;47.664;9.166;2022-09-13T09:58:21;3.83;;;2.60;;
18754;SDS011;35061;47.664;9.166;2022-09-13T10:01:03;2.42;;;2.22;;
18754;SDS011;35061;47.664;9.166;2022-09-13T10:03:36;3.10;;;2.80;;
18754;SDS011;35061;47.664;9.166;2022-09-13T10:06:13;4.37;;;2.78;;
18754;SDS011;35061;47.664;9.166;2022-09-13T10:08:56;3.53;;;2.58;;
18754;SDS011;35061;47.664;9.166;2022-09-13T10:11:37;3.47;;;2.37;;
18754;SDS011;35061;47.664;9.166;2022-09-13T10:17:26;3.65;;;3.20;;
18754;SDS011;35061;47.664;9.166;2022-09-13T10:22:28;3.37;;;2.55;;
18754;SDS011;35061;47.664;9.166;2022-09-13T10:27:52;4.03;;;2.40;;
18754;SDS011;35061;47.664;9.166;2022-09-13T10:33:18;2.80;;;2.50;;
18754;SDS011;35061;47.664;9.166;2022-09-13T10:35:54;4.03;;;2.65;;
18754;SDS011;35061;47.664;9.166;2022-09-13T10:38:32;3.17;;;2.37;;
18754;SDS011;35061;47.664;9.166;2022-09-13T10:41:08;4.32;;;2.50;;
18754;SDS011;35061;47.664;9.166;2022-09-13T10:43:48;2.65;;;2.28;;
18754;SDS011;35061;47.664;9.166;2022-09-13T10:46:23;3.03;;;2.70;;
18754;SDS011;35061;47.664;9.166;2022-09-13T10:48:51;2.83;;;2.60;;
18754;SDS011;35061;47.664;9.166;2022-09-13T10:56:51;3.15;;;2.30;;
18754;SDS011;35061;47.664;9.166;2022-09-13T10:59:25;2.42;;;2.22;;
18754;SDS011;35061;47.664;9.166;2022-09-13T11:07:16;2.67;;;2.30;;
18754;SDS011;35061;47.664;9.166;2022-09-13T11:20:31;4.50;;;2.42;;
18754;SDS011;35061;47.664;9.166;2022-09-13T11:23:25;3.50;;;2.53;;
18754;SDS011;35061;47.664;9.166;2022-09-13T11:34:37;3.95;;;3.45;;
18754;SDS011;35061;47.664;9.166;2022-09-13T11:38:03;4.20;;;2.70;;
18754;SDS011;35061;47.664;9.166;2022-09-13T11:46:02;3.22;;;2.08;;
18754;SDS011;35061;47.664;9.166;2022-09-13T11:51:32;2.62;;;2.30;;
18754;SDS011;35061;47.664;9.166;2022-09-13T11:57:39;1.87;;;1.75;;
18754;SDS011;35061;47.664;9.166;2022-09-13T12:00:19;2.47;;;2.28;;
18754;SDS011;35061;47.664;9.166;2022-09-13T12:02:52;4.53;;;1.75;;
18754;SDS011;35061;47.664;9.166;2022-09-13T12:05:23;2.25;;;2.05;;
18754;SDS011;35061;47.664;9.166;2022-09-13T12:13:22;2.15;;;1.73;;
18754;SDS011;35061;47.664;9.166;2022-09-13T12:15:58;2.03;;;1.60;;
18754;SDS011;35061;47.664;9.166;2022-09-13T12:18:29;3.28;;;1.67;;
18754;SDS011;35061;47.664;9.166;2022-09-13T12:21:06;2.17;;;1.98;;
18754;SDS011;35061;47.664;9.166;2022-09-13T12:24:12;3.83;;;1.95;;
18754;SDS011;35061;47.664;9.166;2022-09-13T12:26:50;2.42;;;2.00;;
18754;SDS011;35061;47.664;9.166;2022-09-13T12:29:24;4.00;;;2.12;;
18754;SDS011;35061;47.664;9.166;2022-09-13T12:31:55;4.07;;;2.10;;
18754;SDS011;35061;47.664;9.166;2022-09-13T12:34:37;4.53;;;2.40;;
18754;SDS011;35061;47.664;9.166;2022-09-13T12:43:36;3.12;;;2.50;;
18754;SDS011;35061;47.664;9.166;2022-09-13T13:01:16;2.35;;;2.15;;
18754;SDS011;35061;47.664;9.166;2022-09-13T13:03:49;2.87;;;1.87;;
18754;SDS011;35061;47.664;9.166;2022-09-13T13:08:58;3.33;;;1.80;;
18754;SDS011;35061;47.664;9.166;2022-09-13T13:11:39;3.47;;;2.55;;
18754;SDS011;35061;47.664;9.166;2022-09-13T13:23:16;3.35;;;2.53;;
18754;SDS011;35061;47.664;9.166;2022-09-13T13:33:51;4.70;;;2.00;;
18754;SDS011;35061;47.664;9.166;2022-09-13T13:36:25;3.70;;;2.25;;
18754;SDS011;35061;47.664;9.166;2022-09-13T13:39:00;3.17;;;1.90;;
18754;SDS011;35061;47.664;9.166;2022-09-13T13:44:00;3.55;;;2.45;;
18754;SDS011;35061;47.664;9.166;2022-09-13T13:46:29;2.10;;;1.80;;
18754;SDS011;35061;47.664;9.166;2022-09-13T14:00:14;3.20;;;2.03;;
18754;SDS011;35061;47.664;9.166;2022-09-13T14:05:24;3.03;;;2.08;;
18754;SDS011;35061;47.664;9.166;2022-09-13T14:19:42;3.58;;;1.80;;
18754;SDS011;35061;47.664;9.166;2022-09-13T14:24:44;2.15;;;1.95;;
18754;SDS011;35061;47.664;9.166;2022-09-13T14:27:16;1.65;;;1.55;;
18754;SDS011;35061;47.664;9.166;2022-09-13T14:29:47;3.08;;;1.83;;
18754;SDS011;35061;47.664;9.166;2022-09-13T14:32:23;2.25;;;1.98;;
18754;SDS011;35061;47.664;9.166;2022-09-13T14:35:04;2.92;;;2.62;;
18754;SDS011;35061;47.664;9.166;2022-09-13T14:37:35;11.65;;;8.63;;
18754;SDS011;35061;47.664;9.166;2022-09-13T14:42:38;3.42;;;2.17;;
18754;SDS011;35061;47.664;9.166;2022-09-13T14:45:12;4.87;;;2.03;;
18754;SDS011;35061;47.664;9.166;2022-09-13T14:50:26;3.47;;;1.95;;
18754;SDS011;35061;47.664;9.166;2022-09-13T14:53:01;5.12;;;2.17;;
18754;SDS011;35061;47.664;9.166;2022-09-13T14:55:35;2.33;;;2.00;;
18754;SDS011;35061;47.664;9.166;2022-09-13T14:58:12;3.87;;;2.08;;
18754;SDS011;35061;47.664;9.166;2022-09-13T15:00:49;4.30;;;2.78;;
18754;SDS011;35061;47.664;9.166;2022-09-13T15:03:21;2.72;;;2.45;;
18754;SDS011;35061;47.664;9.166;2022-09-13T15:05:51;3.42;;;3.12;;
18754;SDS011;35061;47.664;9.166;2022-09-13T15:08:24;1.98;;;1.87;;
18754;SDS011;35061;47.664;9.166;2022-09-13T15:11:02;4.90;;;1.90;;
18754;SDS011;35061;47.664;9.166;2022-09-13T15:13:32;2.28;;;1.95;;
18754;SDS011;35061;47.664;9.166;2022-09-13T15:16:00;1.80;;;1.60;;
18754;SDS011;35061;47.664;9.166;2022-09-13T15:18:31;2.60;;;1.85;;
18754;SDS011;35061;47.664;9.166;2022-09-13T15:21:05;2.10;;;1.90;;
18754;SDS011;35061;47.664;9.166;2022-09-13T15:23:48;2.55;;;2.35;;
18754;SDS011;35061;47.664;9.166;2022-09-13T15:26:21;3.37;;;2.00;;
18754;SDS011;35061;47.664;9.166;2022-09-13T15:28:58;1.67;;;1.58;;
18754;SDS011;35061;47.664;9.166;2022-09-13T15:31:32;2.05;;;1.75;;
18754;SDS011;35061;47.664;9.166;2022-09-13T15:37:01;3.17;;;2.50;;
18754;SDS011;35061;47.664;9.166;2022-09-13T15:39:45;3.35;;;2.30;;
18754;SDS011;35061;47.664;9.166;2022-09-13T15:42:15;2.05;;;1.85;;
18754;SDS011;35061;47.664;9.166;2022-09-13T15:44:43;2.30;;;2.08;;
18754;SDS011;35061;47.664;9.166;2022-09-13T15:47:15;2.12;;;1.83;;
18754;SDS011;35061;47.664;9.166;2022-09-13T15:49:48;2.10;;;1.92;;
18754;SDS011;35061;47.664;9.166;2022-09-13T15:52:18;2.28;;;1.90;;
18754;SDS011;35061;47.664;9.166;2022-09-13T15:54:47;2.33;;;1.95;;
18754;SDS011;35061;47.664;9.166;2022-09-13T15:57:24;4.45;;;2.20;;
18754;SDS011;35061;47.664;9.166;2022-09-13T15:59:54;3.40;;;2.20;;
18754;SDS011;35061;47.664;9.166;2022-09-13T16:02:31;2.30;;;2.08;;
18754;SDS011;35061;47.664;9.166;2022-09-13T16:04:59;3.25;;;2.08;;
18754;SDS011;35061;47.664;9.166;2022-09-13T16:07:27;2.65;;;1.90;;
18754;SDS011;35061;47.664;9.166;2022-09-13T16:09:55;3.00;;;2.35;;
18754;SDS011;35061;47.664;9.166;2022-09-13T16:12:25;2.90;;;1.83;;
18754;SDS011;35061;47.664;9.166;2022-09-13T16:14:54;3.53;;;2.50;;
18754;SDS011;35061;47.664;9.166;2022-09-13T16:17:22;2.85;;;2.30;;
18754;SDS011;35061;47.664;9.166;2022-09-13T16:19:52;2.22;;;1.92;;
18754;SDS011;35061;47.664;9.166;2022-09-13T16:22:21;2.40;;;2.00;;
18754;SDS011;35061;47.664;9.166;2022-09-13T16:24:49;3.00;;;1.87;;
18754;SDS011;35061;47.664;9.166;2022-09-13T16:27:17;2.22;;;1.90;;
18754;SDS011;35061;47.664;9.166;2022-09-13T16:29:45;2.75;;;2.40;;
18754;SDS011;35061;47.664;9.166;2022-09-13T16:32:13;4.25;;;2.60;;
18754;SDS011;35061;47.664;9.166;2022-09-13T16:34:42;3.17;;;2.67;;
18754;SDS011;35061;47.664;9.166;2022-09-13T16:37:11;3.58;;;2.53;;
18754;SDS011;35061;47.664;9.166;2022-09-13T16:39:41;4.30;;;2.17;;
18754;SDS011;35061;47.664;9.166;2022-09-13T16:42:09;3.80;;;2.37;;
18754;SDS011;35061;47.664;9.166;2022-09-13T16:44:37;2.08;;;1.77;;
18754;SDS011;35061;47.664;9.166;2022-09-13T16:47:10;2.83;;;1.90;;
18754;SDS011;35061;47.664;9.166;2022-09-13T16:49:38;2.05;;;1.75;;
18754;SDS011;35061;47.664;9.166;2022-09-13T16:52:06;2.72;;;2.15;;
18754;SDS011;35061;47.664;9.166;2022-09-13T16:54:35;3.33;;;2.35;;
18754;SDS011;35061;47.664;9.166;2022-09-13T16:57:04;2.65;;;2.30;;
18754;SDS011;35061;47.664;9.166;2022-09-13T16:59:32;4.68;;;2.40;;
18754;SDS011;35061;47.664;9.166;2022-09-13T17:02:00;4.18;;;2.30;;
18754;SDS011;35061;47.664;9.166;2022-09-13T17:04:28;3.80;;;2.25;;
18754;SDS011;35061;47.664;9.166;2022-09-13T17:06:56;3.25;;;2.30;;
18754;SDS011;35061;47.664;9.166;2022-09-13T17:09:24;4.30;;;2.67;;
18754;SDS011;35061;47.664;9.166;2022-09-13T17:11:53;2.87;;;2.20;;
18754;SDS011;35061;47.664;9.166;2022-09-13T17:14:21;3.78;;;2.97;;
18754;SDS011;35061;47.664;9.166;2022-09-13T17:16:50;3.37;;;2.50;;
18754;SDS011;35061;47.664;9.166;2022-09-13T17:19:21;3.35;;;2.62;;
18754;SDS011;35061;47.664;9.166;2022-09-13T17:21:50;3.92;;;2.90;;
18754;SDS011;35061;47.664;9.166;2022-09-13T17:24:19;4.70;;;2.22;;
18754;SDS011;35061;47.664;9.166;2022-09-13T17:26:47;4.53;;;2.90;;
18754;SDS011;35061;47.664;9.166;2022-09-13T17:29:15;5.10;;;2.78;;
18754;SDS011;35061;47.664;9.166;2022-09-13T17:31:43;3.45;;;3.15;;
18754;SDS011;35061;47.664;9.166;2022-09-13T17:34:11;4.62;;;3.37;;
18754;SDS011;35061;47.664;9.166;2022-09-13T17:36:40;5.05;;;3.22;;
18754;SDS011;35061;47.664;9.166;2022-09-13T17:39:12;4.35;;;3.12;;
18754;SDS011;35061;47.664;9.166;2022-09-13T17:41:40;5.12;;;3.40;;
18754;SDS011;35061;47.664;9.166;2022-09-13T17:44:08;4.15;;;3.37;;
18754;SDS011;35061;47.664;9.166;2022-09-13T17:46:38;3.25;;;2.70;;
18754;SDS011;35061;47.664;9.166;2022-09-13T17:49:06;3.12;;;2.83;;
18754;SDS011;35061;47.664;9.166;2022-09-13T17:51:34;6.18;;;2.62;;
18754;SDS011;35061;47.664;9.166;2022-09-13T17:54:05;4.60;;;3.12;;
18754;SDS011;35061;47.664;9.166;2022-09-13T17:56:40;5.18;;;3.95;;
18754;SDS011;35061;47.664;9.166;2022-09-13T17:59:10;7.47;;;3.53;;
18754;SDS011;35061;47.664;9.166;2022-09-13T18:01:41;4.97;;;3.25;;
18754;SDS011;35061;47.664;9.166;2022-09-13T18:04:20;5.68;;;3.15;;
18754;SDS011;35061;47.664;9.166;2022-09-13T18:06:49;3.75;;;3.37;;
18754;SDS011;35061;47.664;9.166;2022-09-13T18:09:18;5.32;;;3.10;;
18754;SDS011;35061;47.664;9.166;2022-09-13T18:11:47;4.93;;;2.87;;
18754;SDS011;35061;47.664;9.166;2022-09-13T18:14:16;3.65;;;2.95;;
18754;SDS011;35061;47.664;9.166;2022-09-13T18:16:45;3.67;;;3.20;;
18754;SDS011;35061;47.664;9.166;2022-09-13T18:19:15;3.10;;;2.80;;
18754;SDS011;35061;47.664;9.166;2022-09-13T18:21:59;4.05;;;3.00;;
18754;SDS011;35061;47.664;9.166;2022-09-13T18:24:27;3.92;;;3.03;;
18754;SDS011;35061;47.664;9.166;2022-09-13T18:26:55;4.18;;;3.70;;
18754;SDS011;35061;47.664;9.166;2022-09-13T18:29:23;4.00;;;3.37;;
18754;SDS011;35061;47.664;9.166;2022-09-13T18:31:52;4.78;;;2.97;;
18754;SDS011;35061;47.664;9.166;2022-09-13T18:34:20;5.78;;;3.87;;
18754;SDS011;35061;47.664;9.166;2022-09-13T18:36:52;4.45;;;3.35;;
18754;SDS011;35061;47.664;9.166;2022-09-13T18:39:20;4.50;;;3.50;;
18754;SDS011;35061;47.664;9.166;2022-09-13T18:41:49;3.97;;;3.00;;
18754;SDS011;35061;47.664;9.166;2022-09-13T18:44:17;4.45;;;3.22;;
18754;SDS011;35061;47.664;9.166;2022-09-13T18:46:45;4.55;;;2.97;;
18754;SDS011;35061;47.664;9.166;2022-09-13T18:49:13;5.90;;;3.30;;
18754;SDS011;35061;47.664;9.166;2022-09-13T18:51:42;3.05;;;2.75;;
18754;SDS011;35061;47.664;9.166;2022-09-13T18:54:11;5.20;;;3.12;;
18754;SDS011;35061;47.664;9.166;2022-09-13T18:56:42;2.87;;;2.40;;
18754;SDS011;35061;47.664;9.166;2022-09-13T18:59:10;3.08;;;2.80;;
18754;SDS011;35061;47.664;9.166;2022-09-13T19:01:39;4.15;;;2.78;;
18754;SDS011;35061;47.664;9.166;2022-09-13T19:04:10;4.43;;;2.78;;
18754;SDS011;35061;47.664;9.166;2022-09-13T19:06:41;5.20;;;3.25;;
18754;SDS011;35061;47.664;9.166;2022-09-13T19:09:19;4.10;;;2.87;;
18754;SDS011;35061;47.664;9.166;2022-09-13T19:11:48;2.72;;;2.53;;